Time;durP1;ratioP1;P1;durP2;ratioP2;P2;SDS_P1;SDS_P2;PMS_P1;PMS_P2;Temp;Humidity;BMP_temperature;BMP_pressure;BME280_temperature;BME280_humidity;BME280_pressure;Samples;Min_cycle;Max_cycle;Signal;HPM_P1;HPM_P2
2023/05/03 00:02:05;;;;;;;10.73;3.17;;;4.30;99.90;;;;;;5056040;28;20057;-50
2023/05/03 00:04:33;;;;;;;7.38;3.30;;;;;;;;;;5056156;28;20405;-51
2023/05/03 00:06:59;;;;;;;6.28;2.90;;;;;;;;;;5056735;28;20136;-53
2023/05/03 00:09:25;;;;;;;6.13;2.67;;;;;;;;;;5056913;28;20074;-53
2023/05/03 00:11:52;;;;;;;5.63;3.17;;;;;;;;;;5055508;28;20501;-49
2023/05/03 00:14:18;;;;;;;8.48;3.20;;;;;;;;;;5056450;28;20052;-50
2023/05/03 00:16:44;;;;;;;7.03;2.85;;;;;;;;;;5056688;28;20132;-51
2023/05/03 00:19:10;;;;;;;9.25;3.33;;;;;;;;;;5037098;28;20416;-50
2023/05/03 00:21:36;;;;;;;7.47;3.05;;;;;;;;;;5055418;28;20056;-52
2023/05/03 00:27:44;;;;;;;7.93;3.25;;;;;;;;;;5055111;28;20110;-53
2023/05/03 00:30:10;;;;;;;9.98;3.97;;;3.80;99.90;;;;;;5054967;28;20052;-49
2023/05/03 00:32:36;;;;;;;6.15;2.95;;;;;;;;;;5054710;28;20098;-51
2023/05/03 00:35:03;;;;;;;9.13;4.03;;;;;;;;;;5055903;28;20324;-52
2023/05/03 00:37:29;;;;;;;8.48;3.63;;;3.80;99.90;;;;;;5055273;28;20045;-53
2023/05/03 00:39:55;;;;;;;6.93;4.00;;;3.70;99.90;;;;;;5057019;28;20048;-52
2023/05/03 00:42:22;;;;;;;7.22;3.38;;;;;;;;;;5054207;28;20524;-53
2023/05/03 00:44:49;;;;;;;7.60;3.78;;;;;;;;;;5054541;28;20055;-51
2023/05/03 00:47:15;;;;;;;8.35;3.75;;;3.90;99.90;;;;;;5055134;28;20052;-50
2023/05/03 00:49:41;;;;;;;10.65;4.00;;;3.90;99.90;;;;;;5055877;28;20044;-53
2023/05/03 00:52:08;;;;;;;8.77;4.13;;;4.10;99.90;;;;;;5054340;28;20048;-52
2023/05/03 00:54:34;;;;;;;7.20;3.55;;;;;;;;;;5054534;28;20077;-53
2023/05/03 00:57:03;;;;;;;8.95;3.80;;;4.20;99.90;;;;;;5055298;28;20060;-53
2023/05/03 00:59:28;;;;;;;6.82;3.55;;;4.30;99.90;;;;;;5054605;28;20370;-53
2023/05/03 01:01:54;;;;;;;6.38;3.40;;;4.20;99.90;;;;;;5054159;28;20068;-53
2023/05/03 01:04:22;;;;;;;12.77;3.83;;;4.30;99.90;;;;;;5054396;28;20049;-53
2023/05/03 01:07:13;;;;;;;11.02;3.83;;;4.20;99.90;;;;;;5055516;28;20713;-52
2023/05/03 01:09:46;;;;;;;8.50;3.80;;;4.40;99.90;;;;;;5039119;28;20056;-54
2023/05/03 01:12:37;;;;;;;12.38;3.55;;;4.30;99.90;;;;;;5055324;28;20041;-53
2023/05/03 01:15:42;;;;;;;7.25;3.50;;;4.40;99.90;;;;;;5055124;28;20060;-51
2023/05/03 01:18:14;;;;;;;7.68;3.53;;;4.60;99.90;;;;;;5019272;28;20545;-52
2023/05/03 01:20:45;;;;;;;6.38;3.08;;;4.70;99.90;;;;;;5055471;28;20076;-53
2023/05/03 01:23:20;;;;;;;12.02;3.90;;;4.30;99.90;;;;;;5055811;28;20102;-52
2023/05/03 01:25:46;;;;;;;6.07;3.47;;;4.60;99.90;;;;;;5055070;28;20110;-53
2023/05/03 01:28:12;;;;;;;6.30;3.10;;;;;;;;;;5037774;28;20052;-52
2023/05/03 01:30:40;;;;;;;9.45;2.97;;;4.60;99.90;;;;;;5053747;28;20075;-53
2023/05/03 01:33:33;;;;;;;5.93;2.78;;;4.50;99.90;;;;;;5054131;28;20044;-54
2023/05/03 01:36:19;;;;;;;9.20;3.53;;;4.40;99.90;;;;;;5052978;28;20084;-50
2023/05/03 01:38:47;;;;;;;6.20;3.38;;;4.40;99.90;;;;;;5053710;28;20460;-51
2023/05/03 01:41:14;;;;;;;6.90;3.72;;;;;;;;;;5056618;28;20123;-52
2023/05/03 01:43:40;;;;;;;9.27;3.13;;;;;;;;;;5053865;28;20500;-53
2023/05/03 01:46:06;;;;;;;5.05;3.03;;;;;;;;;;5054998;28;20055;-49
2023/05/03 01:48:32;;;;;;;6.07;3.33;;;;;;;;;;5036555;28;20048;-53
2023/05/03 01:50:59;;;;;;;9.50;3.35;;;;;;;;;;5054863;28;20089;-52
2023/05/03 01:53:25;;;;;;;10.68;3.22;;;;;;;;;;5055651;28;20044;-52
2023/05/03 01:55:51;;;;;;;4.95;2.65;;;;;;;;;;5054271;28;21140;-50
2023/05/03 01:58:17;;;;;;;8.73;3.22;;;;;;;;;;5056076;28;20033;-49
2023/05/03 02:00:45;;;;;;;6.50;3.97;;;4.40;99.90;;;;;;5054583;28;20040;-49
2023/05/03 02:03:11;;;;;;;5.55;2.85;;;;;;;;;;5052873;28;20159;-48
2023/05/03 02:05:37;;;;;;;6.10;3.20;;;4.20;99.90;;;;;;5053936;28;20443;-50
2023/05/03 02:08:03;;;;;;;6.75;3.20;;;;;;;;;;5036490;28;20036;-56
2023/05/03 02:10:29;;;;;;;5.85;3.58;;;4.30;99.90;;;;;;5055417;28;20040;-50
2023/05/03 02:12:55;;;;;;;8.98;3.20;;;4.10;99.90;;;;;;5053946;28;20512;-50
2023/05/03 02:15:21;;;;;;;8.93;3.42;;;;;;;;;;5054744;28;20338;-49
2023/05/03 02:17:48;;;;;;;7.10;3.55;;;4.50;99.90;;;;;;5036778;28;20106;-52
2023/05/03 02:20:14;;;;;;;7.38;3.40;;;4.40;99.90;;;;;;5053818;28;20045;-48
2023/05/03 02:22:40;;;;;;;10.25;3.28;;;;;;;;;;5053979;28;20385;-54
2023/05/03 02:25:07;;;;;;;10.68;3.53;;;4.70;99.90;;;;;;5054025;28;20052;-50
2023/05/03 02:27:32;;;;;;;6.43;3.33;;;4.70;99.90;;;;;;5053691;28;20045;-52
2023/05/03 02:29:58;;;;;;;9.85;3.35;;;;;;;;;;5052968;28;20059;-51
2023/05/03 02:32:25;;;;;;;8.10;4.75;;;;;;;;;;5053277;28;20159;-51
2023/05/03 02:34:50;;;;;;;6.65;3.30;;;4.80;99.90;;;;;;5052554;28;20796;-52
2023/05/03 02:37:16;;;;;;;8.07;3.75;;;4.80;99.90;;;;;;5054738;28;20120;-51
2023/05/03 02:39:42;;;;;;;7.50;3.60;;;4.90;99.90;;;;;;5054179;28;20485;-52
2023/05/03 02:42:08;;;;;;;6.63;3.33;;;4.80;99.90;;;;;;5053565;28;20474;-50
2023/05/03 02:44:34;;;;;;;5.55;3.05;;;5.00;99.90;;;;;;5054628;28;20040;-50
2023/05/03 02:46:59;;;;;;;5.88;3.15;;;5.00;99.90;;;;;;5052487;28;20077;-50
2023/05/03 02:49:25;;;;;;;8.10;3.53;;;5.00;99.90;;;;;;5053089;28;20037;-53
2023/05/03 02:51:51;;;;;;;5.53;3.35;;;5.20;99.90;;;;;;5051762;28;20049;-50
2023/05/03 02:54:17;;;;;;;8.65;3.50;;;5.10;99.90;;;;;;5053564;28;20079;-51
2023/05/03 02:56:43;;;;;;;8.73;2.90;;;4.90;99.90;;;;;;5052989;28;20121;-52
2023/05/03 02:59:10;;;;;;;9.52;3.13;;;5.20;99.90;;;;;;5053229;28;20089;-49
2023/05/03 03:01:36;;;;;;;4.82;2.75;;;5.20;99.90;;;;;;5052870;28;20044;-50
2023/05/03 03:04:02;;;;;;;8.00;3.40;;;5.30;99.90;;;;;;5035181;28;20055;-52
2023/05/03 03:06:28;;;;;;;6.57;3.17;;;5.20;99.90;;;;;;5052244;28;20036;-52
2023/05/03 03:08:53;;;;;;;7.25;3.58;;;5.20;99.90;;;;;;5052297;28;20461;-50
2023/05/03 03:11:19;;;;;;;10.45;2.95;;;5.10;99.90;;;;;;5053984;28;20425;-50
2023/05/03 03:13:45;;;;;;;5.82;2.97;;;5.10;99.90;;;;;;5035683;28;20040;-51
2023/05/03 03:16:12;;;;;;;8.32;3.10;;;5.00;99.90;;;;;;5052251;28;20698;-51
2023/05/03 03:18:38;;;;;;;9.95;3.83;;;5.10;99.90;;;;;;5054190;28;20135;-51
2023/05/03 03:21:03;;;;;;;7.97;3.10;;;5.10;99.90;;;;;;5053183;28;20223;-52
2023/05/03 03:23:30;;;;;;;8.27;3.20;;;;;;;;;;5053687;28;20037;-50
2023/05/03 03:25:55;;;;;;;6.45;3.50;;;5.00;99.90;;;;;;5052813;28;20102;-52
2023/05/03 03:28:21;;;;;;;6.15;3.08;;;4.80;99.90;;;;;;5053704;28;20048;-49
2023/05/03 03:30:47;;;;;;;7.10;3.00;;;4.80;99.90;;;;;;5054473;28;20048;-51
2023/05/03 03:33:13;;;;;;;5.50;3.03;;;;;;;;;;5052879;28;20037;-50
2023/05/03 03:35:39;;;;;;;6.00;3.40;;;4.60;99.90;;;;;;5054139;28;20036;-54
2023/05/03 03:38:05;;;;;;;5.90;2.72;;;4.70;99.90;;;;;;5035696;28;20043;-50
2023/05/03 03:40:31;;;;;;;7.72;3.13;;;;;;;;;;5055310;28;20076;-53
2023/05/03 03:42:57;;;;;;;5.32;2.45;;;4.40;99.90;;;;;;5052517;28;20117;-48
2023/05/03 03:45:23;;;;;;;5.88;3.10;;;;;;;;;;5053439;28;20453;-53
2023/05/03 03:47:49;;;;;;;7.47;3.08;;;4.40;99.90;;;;;;5052810;28;20123;-52
2023/05/03 03:50:15;;;;;;;6.47;3.13;;;4.40;99.90;;;;;;5051872;28;20070;-49
2023/05/03 03:52:41;;;;;;;9.27;3.20;;;4.30;99.90;;;;;;5052861;28;20094;-51
2023/05/03 03:55:07;;;;;;;7.75;3.53;;;4.10;99.90;;;;;;5034969;28;20045;-51
2023/05/03 03:57:33;;;;;;;7.05;2.97;;;3.30;99.90;;;;;;5035553;28;20039;-50
2023/05/03 03:59:59;;;;;;;5.90;3.08;;;;;;;;;;5051278;28;20037;-53
2023/05/03 04:02:26;;;;;;;5.88;3.53;;;4.00;99.90;;;;;;5052769;28;21103;-50
2023/05/03 04:04:52;;;;;;;6.50;3.38;;;4.10;99.90;;;;;;5034630;28;20060;-51
2023/05/03 04:07:18;;;;;;;8.05;3.03;;;;;;;;;;5052401;28;20044;-52
2023/05/03 04:09:44;;;;;;;6.05;3.03;;;;;;;;;;5033915;28;20143;-50
2023/05/03 04:12:11;;;;;;;7.45;3.60;;;;;;;;;;5036706;28;20135;-49
2023/05/03 04:14:37;;;;;;;8.70;3.22;;;;;;;;;;5034190;28;20187;-52
2023/05/03 04:17:03;;;;;;;7.82;3.60;;;;;;;;;;5052765;28;20127;-52
2023/05/03 04:19:29;;;;;;;7.20;3.60;;;;;;;;;;5050882;28;20044;-52
2023/05/03 04:21:55;;;;;;;9.27;3.70;;;4.20;99.90;;;;;;5051351;28;20032;-52
2023/05/03 04:24:20;;;;;;;23.15;4.95;;;4.10;99.90;;;;;;5051376;28;20594;-52
2023/05/03 04:26:47;;;;;;;7.25;3.58;;;;;;;;;;5053050;28;20056;-52
2023/05/03 04:29:13;;;;;;;11.82;4.40;;;;;;;;;;5055286;28;20041;-48
2023/05/03 04:31:39;;;;;;;6.60;3.55;;;;;;;;;;5055216;28;20075;-50
2023/05/03 04:34:06;;;;;;;8.38;4.20;;;;;;;;;;5054701;28;20033;-53
2023/05/03 04:36:33;;;;;;;8.70;4.20;;;;;;;;;;5055618;28;20066;-54
2023/05/03 04:38:59;;;;;;;8.00;4.00;;;;;;;;;;5054979;28;20541;-50
2023/05/03 04:41:25;;;;;;;10.57;5.07;;;4.40;99.90;;;;;;5056556;28;20045;-53
2023/05/03 04:43:51;;;;;;;9.40;4.28;;;;;;;;;;5055845;28;20043;-52
2023/05/03 04:46:17;;;;;;;9.80;3.97;;;;;;;;;;5036959;28;20109;-53
2023/05/03 04:48:44;;;;;;;6.88;4.47;;;4.70;99.90;;;;;;5054971;28;20509;-50
2023/05/03 04:51:10;;;;;;;6.32;4.00;;;;;;;;;;5054302;28;20032;-50
2023/05/03 04:53:36;;;;;;;7.80;3.95;;;4.90;99.90;;;;;;5055897;28;20135;-52
2023/05/03 04:56:02;;;;;;;10.20;4.43;;;;;;;;;;5036876;28;20101;-51
2023/05/03 04:58:28;;;;;;;9.57;4.15;;;5.20;99.90;;;;;;5055442;28;20323;-53
2023/05/03 05:00:54;;;;;;;7.53;4.28;;;5.10;99.90;;;;;;5054719;28;20067;-52
2023/05/03 05:03:20;;;;;;;7.30;3.80;;;5.20;99.90;;;;;;5035980;28;20041;-53
2023/05/03 05:05:46;;;;;;;8.10;4.10;;;5.40;99.90;;;;;;5054987;28;20106;-51
2023/05/03 05:08:12;;;;;;;11.45;3.75;;;;;;;;;;5054051;28;20500;-52
2023/05/03 05:10:40;;;;;;;8.15;3.60;;;5.40;99.90;;;;;;5055851;28;20048;-53
2023/05/03 05:13:06;;;;;;;8.55;3.50;;;5.60;99.90;;;;;;5054718;28;20739;-52
2023/05/03 05:15:32;;;;;;;11.65;4.35;;;;;;;;;;5055369;28;20041;-52
2023/05/03 05:17:58;;;;;;;4.70;2.97;;;5.70;99.90;;;;;;5053961;28;20624;-50
2023/05/03 05:20:24;;;;;;;6.63;3.28;;;5.70;99.90;;;;;;5053799;28;20041;-51
2023/05/03 05:22:50;;;;;;;5.72;2.78;;;5.70;99.90;;;;;;5054187;28;21581;-53
2023/05/03 05:25:15;;;;;;;8.15;3.33;;;5.90;99.90;;;;;;5054316;28;20037;-52
2023/05/03 05:27:41;;;;;;;5.22;3.00;;;5.90;99.90;;;;;;5054617;28;20150;-48
2023/05/03 05:30:07;;;;;;;7.00;3.20;;;6.10;99.90;;;;;;5054793;28;20045;-48
2023/05/03 05:32:33;;;;;;;6.38;3.00;;;6.20;99.90;;;;;;5035475;28;20492;-53
2023/05/03 05:34:59;;;;;;;5.65;2.60;;;6.30;99.90;;;;;;5035116;28;20044;-52
2023/05/03 05:37:26;;;;;;;5.40;3.13;;;6.30;99.90;;;;;;5054499;28;21448;-48
2023/05/03 05:39:52;;;;;;;9.13;3.30;;;6.40;99.90;;;;;;5055051;28;20505;-54
2023/05/03 05:42:18;;;;;;;5.75;3.00;;;6.40;99.90;;;;;;5038263;28;20032;-48
2023/05/03 05:44:44;;;;;;;6.38;2.80;;;6.50;99.90;;;;;;5054164;28;20051;-49
2023/05/03 05:47:10;;;;;;;6.60;2.78;;;7.10;99.90;;;;;;5052365;28;23329;-52
2023/05/03 05:49:35;;;;;;;9.35;3.25;;;8.50;99.90;;;;;;5055761;28;20044;-52
2023/05/03 05:52:01;;;;;;;5.30;2.60;;;6.70;99.90;;;;;;5053367;28;20048;-51
2023/05/03 05:54:27;;;;;;;9.48;2.85;;;6.90;99.90;;;;;;5054630;28;20036;-52
2023/05/03 05:56:53;;;;;;;5.68;2.30;;;8.50;99.90;;;;;;5055257;28;20048;-48
2023/05/03 05:59:19;;;;;;;6.22;1.95;;;8.20;99.90;;;;;;5053722;28;20130;-48
2023/05/03 06:01:45;;;;;;;5.43;1.83;;;7.10;99.90;;;;;;5053297;28;20095;-48
2023/05/03 06:04:12;;;;;;;4.03;2.00;;;7.30;99.90;;;;;;5055034;28;20055;-50
2023/05/03 06:06:38;;;;;;;6.13;2.15;;;7.30;99.90;;;;;;5037219;28;20535;-47
2023/05/03 06:09:04;;;;;;;7.30;1.95;;;7.50;99.90;;;;;;5054689;28;20370;-52
2023/05/03 06:11:30;;;;;;;5.13;1.60;;;7.40;99.90;;;;;;5055575;28;20051;-48
2023/05/03 06:13:56;;;;;;;3.28;1.70;;;7.40;99.90;;;;;;5037666;28;20043;-48
2023/05/03 06:16:23;;;;;;;6.47;1.65;;;7.40;99.90;;;;;;5034994;28;20048;-51
2023/05/03 06:18:49;;;;;;;4.18;1.20;;;8.90;99.90;;;;;;5053787;28;20052;-53
2023/05/03 06:21:15;;;;;;;5.85;1.15;;;7.70;99.90;;;;;;5054762;28;20413;-50
2023/05/03 06:23:41;;;;;;;5.20;1.30;;;7.90;99.90;;;;;;5035918;28;20037;-48
2023/05/03 06:26:07;;;;;;;4.95;1.35;;;9.00;99.90;;;;;;5053006;28;20059;-50
2023/05/03 06:28:33;;;;;;;6.15;2.47;;;8.00;99.90;;;;;;5053689;28;20483;-49
2023/05/03 06:31:00;;;;;;;5.28;1.10;;;7.90;99.90;;;;;;5054838;28;20139;-48
2023/05/03 06:33:26;;;;;;;6.00;1.20;;;8.20;99.90;;;;;;5053339;28;20052;-49
2023/05/03 06:35:51;;;;;;;5.97;1.30;;;8.10;99.90;;;;;;5052824;28;20053;-49
2023/05/03 06:38:17;;;;;;;3.85;1.25;;;8.30;99.90;;;;;;5054167;28;20036;-52
2023/05/03 06:40:47;;;;;;;5.55;1.60;;;8.30;99.90;;;;;;5036270;28;21108;-51
2023/05/03 06:43:12;;;;;;;3.13;1.00;;;8.50;99.90;;;;;;5053890;28;20430;-51
2023/05/03 06:45:40;;;;;;;4.13;0.90;;;7.60;99.90;;;;;;5052209;28;20052;-52
2023/05/03 06:48:06;;;;;;;8.57;1.23;;;8.60;99.90;;;;;;5052549;28;20674;-53
2023/05/03 06:50:32;;;;;;;6.28;1.38;;;8.50;99.90;;;;;;5018810;28;20041;-51
2023/05/03 06:52:58;;;;;;;4.28;1.15;;;8.90;99.90;;;;;;5053006;28;20044;-52
2023/05/03 06:55:24;;;;;;;8.23;1.15;;;8.90;99.90;;;;;;5053884;28;20051;-53
2023/05/03 06:57:51;;;;;;;4.43;1.33;;;8.80;99.90;;;;;;5054152;28;20040;-53
2023/05/03 07:00:20;;;;;;;4.18;1.02;;;8.90;99.90;;;;;;5054713;28;20056;-49
2023/05/03 07:02:46;;;;;;;5.28;1.38;;;9.00;99.90;;;;;;5053758;28;20136;-52
2023/05/03 07:05:12;;;;;;;5.82;1.20;;;9.20;99.90;;;;;;5035514;28;20044;-53
2023/05/03 07:07:38;;;;;;;2.15;0.90;;;9.10;99.90;;;;;;5035480;28;20045;-51
2023/05/03 07:10:04;;;;;;;6.07;1.10;;;9.40;99.90;;;;;;5054752;28;20055;-52
2023/05/03 07:12:30;;;;;;;6.63;1.08;;;9.40;99.90;;;;;;5054846;28;21196;-51
2023/05/03 07:14:56;;;;;;;4.00;1.05;;;9.50;99.90;;;;;;5053936;28;20308;-53
2023/05/03 07:17:23;;;;;;;3.97;1.02;;;8.80;99.90;;;;;;5052613;28;20405;-52
2023/05/03 07:19:49;;;;;;;4.07;0.80;;;9.20;99.90;;;;;;5053448;28;20093;-50
2023/05/03 07:22:15;;;;;;;5.32;1.10;;;9.50;99.90;;;;;;5053154;28;20044;-52
2023/05/03 07:24:41;;;;;;;8.90;1.75;;;9.70;99.90;;;;;;5053293;28;20078;-52
2023/05/03 07:27:07;;;;;;;3.63;0.75;;;10.00;99.90;;;;;;5053404;28;20060;-51
2023/05/03 07:29:33;;;;;;;2.10;0.88;;;9.80;99.90;;;;;;5035251;28;20516;-52
2023/05/03 07:31:59;;;;;;;5.50;0.90;;;9.90;99.90;;;;;;5034337;28;20040;-52
2023/05/03 07:34:25;;;;;;;5.65;1.10;;;9.80;99.90;;;;;;5052578;28;20142;-51
2023/05/03 07:36:51;;;;;;;5.45;1.08;;;9.90;99.90;;;;;;5054433;28;20049;-53
2023/05/03 07:39:18;;;;;;;5.57;1.13;;;9.80;99.90;;;;;;5035064;28;20141;-54
2023/05/03 07:41:43;;;;;;;5.68;1.35;;;10.00;99.90;;;;;;5053448;28;20456;-49
2023/05/03 07:44:09;;;;;;;4.97;0.98;;;10.10;99.90;;;;;;5053518;28;20044;-49
2023/05/03 07:46:35;;;;;;;4.57;0.98;;;10.10;99.90;;;;;;5052515;28;20029;-52
2023/05/03 07:49:02;;;;;;;4.68;0.85;;;9.90;99.90;;;;;;5051489;28;20059;-50
2023/05/03 07:51:29;;;;;;;5.15;0.85;;;10.10;99.90;;;;;;5050767;28;20591;-48
2023/05/03 07:53:58;;;;;;;5.93;0.90;;;10.00;99.90;;;;;;5053110;28;20068;-52
2023/05/03 07:56:25;;;;;;;5.70;0.88;;;9.80;99.90;;;;;;5054039;28;20219;-49
2023/05/03 07:58:51;;;;;;;2.42;0.80;;;9.90;99.90;;;;;;5052165;28;20052;-49
2023/05/03 08:01:17;;;;;;;5.97;0.90;;;9.90;99.90;;;;;;5052249;28;20549;-52
2023/05/03 08:03:43;;;;;;;3.80;0.60;;;10.00;99.90;;;;;;5055910;28;20156;-47
2023/05/03 08:06:08;;;;;;;4.68;0.82;;;10.00;99.90;;;;;;5039162;28;20138;-53
2023/05/03 08:08:34;;;;;;;4.13;0.90;;;9.90;99.90;;;;;;5056092;28;20362;-50
2023/05/03 08:11:00;;;;;;;4.43;0.70;;;9.90;99.90;;;;;;5056023;28;20076;-50
2023/05/03 08:13:26;;;;;;;4.90;1.33;;;10.70;99.90;;;;;;5058042;28;20173;-48
2023/05/03 08:15:51;;;;;;;5.18;0.88;;;10.10;99.90;;;;;;5055202;28;20079;-49
2023/05/03 08:18:17;;;;;;;5.78;0.90;;;10.50;99.90;;;;;;5054678;28;20488;-51
2023/05/03 08:20:44;;;;;;;3.58;0.90;;;10.20;99.90;;;;;;5056056;28;20052;-49
2023/05/03 08:23:10;;;;;;;5.05;1.27;;;10.40;99.90;;;;;;5055191;28;20557;-51
2023/05/03 08:25:36;;;;;;;7.70;1.77;;;10.50;99.90;;;;;;5055123;28;20072;-48
2023/05/03 08:28:02;;;;;;;4.22;0.70;;;10.50;99.90;;;;;;5054256;28;21281;-48
2023/05/03 08:30:29;;;;;;;6.13;1.05;;;10.60;99.90;;;;;;5057292;28;20048;-48
2023/05/03 08:32:55;;;;;;;9.18;0.90;;;10.80;99.90;;;;;;5055974;28;20044;-50
2023/05/03 08:35:20;;;;;;;4.53;0.57;;;10.50;99.90;;;;;;5054659;28;20067;-49
2023/05/03 08:37:46;;;;;;;4.43;1.05;;;10.40;99.90;;;;;;5056852;28;20127;-48
2023/05/03 08:40:14;;;;;;;5.03;0.90;;;10.30;99.90;;;;;;5056717;28;20040;-51
2023/05/03 08:42:44;;;;;;;4.30;0.80;;;10.30;99.90;;;;;;5056985;28;20132;-51
2023/05/03 08:45:13;;;;;;;3.63;0.70;;;10.40;99.90;;;;;;5055950;28;20445;-51
2023/05/03 08:47:40;;;;;;;2.80;0.75;;;10.20;99.90;;;;;;5055216;28;20110;-49
2023/05/03 08:50:08;;;;;;;5.88;1.13;;;10.30;99.90;;;;;;5054449;28;21347;-53
2023/05/03 08:52:34;;;;;;;4.15;0.70;;;10.10;99.90;;;;;;5054537;28;20839;-48
2023/05/03 08:55:00;;;;;;;4.28;1.40;;;10.30;99.90;;;;;;5055544;28;20745;-49
2023/05/03 08:57:27;;;;;;;2.92;0.77;;;10.20;99.90;;;;;;5037290;28;20040;-47
2023/05/03 08:59:57;;;;;;;6.10;0.80;;;10.20;99.90;;;;;;5036736;28;20040;-47
2023/05/03 09:02:23;;;;;;;3.33;1.20;;;10.40;99.90;;;;;;5054049;28;20087;-48
2023/05/03 09:04:49;;;;;;;2.40;0.65;;;10.10;99.90;;;;;;5055343;28;20144;-49
2023/05/03 09:07:15;;;;;;;5.55;1.00;;;10.50;99.90;;;;;;5055235;28;20055;-48
2023/05/03 09:09:44;;;;;;;7.65;0.90;;;10.10;99.90;;;;;;5054432;28;20056;-50
2023/05/03 09:12:10;;;;;;;4.63;0.82;;;10.30;99.90;;;;;;5055020;28;20033;-48
2023/05/03 09:14:44;;;;;;;5.25;1.17;;;10.40;99.90;;;;;;5038154;28;20193;-49
2023/05/03 09:17:14;;;;;;;5.95;1.50;;;10.30;99.90;;;;;;5054048;28;20044;-51
2023/05/03 09:19:57;;;;;;;4.50;1.00;;;10.30;99.90;;;;;;5053683;28;20353;-48
2023/05/03 09:22:32;;;;;;;5.18;1.05;;;10.30;99.90;;;;;;5038742;28;20049;-51
2023/05/03 09:24:59;;;;;;;7.40;2.03;;;10.30;99.90;;;;;;5054291;28;20681;-50
2023/05/03 09:27:26;;;;;;;4.53;0.82;;;10.40;99.90;;;;;;5054208;28;20066;-53
2023/05/03 09:29:54;;;;;;;4.75;1.02;;;10.50;99.90;;;;;;5054493;28;20463;-49
2023/05/03 09:32:21;;;;;;;2.83;1.17;;;10.60;99.90;;;;;;5053784;28;20045;-50
2023/05/03 09:34:47;;;;;;;4.60;1.00;;;10.80;99.90;;;;;;5054520;28;20139;-51
2023/05/03 09:37:13;;;;;;;6.10;1.10;;;10.90;99.90;;;;;;5054539;28;20036;-49
2023/05/03 09:39:44;;;;;;;2.85;1.00;;;11.40;99.90;;;;;;5055164;28;20044;-52
2023/05/03 09:42:13;;;;;;;4.72;1.02;;;11.50;99.90;;;;;;5055904;28;20036;-48
2023/05/03 09:44:47;;;;;;;4.38;1.02;;;11.60;99.90;;;;;;5056077;28;20052;-50
2023/05/03 09:47:14;;;;;;;5.28;0.93;;;11.70;99.90;;;;;;5052422;28;20067;-48
2023/05/03 09:49:40;;;;;;;4.65;1.30;;;11.70;99.90;;;;;;5054576;28;20044;-52
2023/05/03 09:52:07;;;;;;;5.57;1.77;;;11.90;99.90;;;;;;5053765;28;20481;-49
2023/05/03 09:54:36;;;;;;;6.55;1.10;;;11.70;99.90;;;;;;5053539;28;20427;-48
2023/05/03 09:57:04;;;;;;;3.55;1.15;;;11.50;99.90;;;;;;5053127;28;20052;-52
2023/05/03 09:59:35;;;;;;;4.28;1.00;;;11.60;99.90;;;;;;5054050;28;20775;-52
2023/05/03 10:02:03;;;;;;;4.05;1.40;;;11.80;99.90;;;;;;5054095;28;20041;-50
2023/05/03 10:04:38;;;;;;;5.22;1.00;;;11.80;99.90;;;;;;5055044;28;20064;-53
2023/05/03 10:07:09;;;;;;;6.25;1.48;;;11.70;99.90;;;;;;5056561;28;20048;-52
2023/05/03 10:09:39;;;;;;;3.60;1.10;;;11.60;99.90;;;;;;5054491;28;20051;-53
2023/05/03 10:12:08;;;;;;;3.83;0.90;;;11.60;99.90;;;;;;5055301;28;20660;-50
2023/05/03 10:14:34;;;;;;;5.47;1.10;;;11.30;99.90;;;;;;5057026;28;20177;-49
2023/05/03 10:17:07;;;;;;;4.53;1.10;;;11.60;99.90;;;;;;5055630;28;20044;-51
2023/05/03 10:20:28;;;;;;;2.08;0.70;;;11.70;99.90;;;;;;5053569;28;21272;-51
2023/05/03 10:23:11;;;;;;;4.45;1.00;;;11.60;99.90;;;;;;4954898;28;20179;-51
2023/05/03 10:25:39;;;;;;;5.95;0.90;;;11.90;99.90;;;;;;4951588;28;20062;-53
2023/05/03 10:28:06;;;;;;;3.85;0.88;;;11.90;99.90;;;;;;5012882;28;20052;-49
2023/05/03 10:30:39;;;;;;;3.85;0.93;;;12.20;99.90;;;;;;5054407;28;20040;-48
2023/05/03 10:33:30;;;;;;;6.38;1.08;;;12.20;99.90;;;;;;5053897;28;20059;-50
2023/05/03 10:35:57;;;;;;;3.90;0.95;;;12.20;99.90;;;;;;5039713;28;20135;-53
2023/05/03 10:38:25;;;;;;;4.72;1.10;;;12.30;99.90;;;;;;5053485;28;20071;-52
2023/05/03 10:40:53;;;;;;;4.10;1.00;;;12.10;99.90;;;;;;5054181;28;20405;-49
2023/05/03 10:43:31;;;;;;;4.22;0.90;;;12.10;99.90;;;;;;5054472;28;20051;-51
2023/05/03 10:46:01;;;;;;;5.38;1.00;;;12.20;99.90;;;;;;5035612;28;20055;-49
2023/05/03 10:48:28;;;;;;;3.22;1.02;;;12.10;99.90;;;;;;5054448;28;20416;-51
2023/05/03 10:50:55;;;;;;;3.80;0.90;;;12.20;99.90;;;;;;5053497;28;20178;-52
2023/05/03 10:53:32;;;;;;;4.22;1.13;;;12.40;99.90;;;;;;5053981;28;20117;-51
2023/05/03 10:56:04;;;;;;;4.28;1.35;;;12.10;99.90;;;;;;5053579;28;20051;-52
2023/05/03 10:58:34;;;;;;;;;;;12.10;99.90;;;;;;5054944;28;20041;-50
2023/05/03 11:01:01;;;;;;;4.25;1.10;;;12.50;99.90;;;;;;5055051;28;20399;-52
2023/05/03 11:03:41;;;;;;;4.40;1.02;;;12.50;99.90;;;;;;5054013;28;20052;-51
2023/05/03 11:06:07;;;;;;;3.63;0.90;;;12.70;99.90;;;;;;5052104;28;20132;-47
2023/05/03 11:08:36;;;;;;;6.47;1.25;;;12.50;99.90;;;;;;5054490;28;20128;-52
2023/05/03 11:11:09;;;;;;;5.65;1.08;;;12.50;99.90;;;;;;5053697;28;20139;-50
2023/05/03 11:13:38;;;;;;;5.05;1.00;;;10.80;99.90;;;;;;5056527;28;20114;-49
2023/05/03 11:16:04;;;;;;;4.40;0.90;;;12.80;99.90;;;;;;5054466;28;20264;-52
2023/05/03 11:18:31;;;;;;;2.67;1.05;;;12.70;99.90;;;;;;5037122;28;20147;-52
2023/05/03 11:20:57;;;;;;;2.90;1.08;;;12.90;99.90;;;;;;5036413;28;20040;-51
2023/05/03 11:23:27;;;;;;;2.60;1.00;;;12.70;99.90;;;;;;5036834;28;20037;-51
2023/05/03 11:25:55;;;;;;;6.72;1.10;;;12.30;99.90;;;;;;5054773;28;20044;-50
2023/05/03 11:28:21;;;;;;;3.30;1.23;;;12.70;99.90;;;;;;5054213;28;20055;-52
2023/05/03 11:30:46;;;;;;;3.80;1.10;;;12.80;99.90;;;;;;5053547;28;20553;-53
2023/05/03 11:33:12;;;;;;;7.45;1.20;;;13.00;99.90;;;;;;5053442;28;20051;-51
2023/05/03 11:35:38;;;;;;;4.15;1.20;;;13.20;99.90;;;;;;5034581;28;20040;-54
2023/05/03 11:38:04;;;;;;;2.33;0.82;;;13.10;99.90;;;;;;5053597;28;20036;-53
2023/05/03 11:40:30;;;;;;;4.32;1.05;;;13.10;99.90;;;;;;5053000;28;20040;-50
2023/05/03 11:42:59;;;;;;;5.53;1.30;;;13.10;99.90;;;;;;5053989;28;20054;-53
2023/05/03 11:45:37;;;;;;;8.25;1.15;;;12.90;99.90;;;;;;5034698;28;20040;-51
2023/05/03 11:48:03;;;;;;;4.15;1.00;;;13.20;99.90;;;;;;5052619;28;20059;-52
2023/05/03 11:50:54;;;;;;;3.20;1.15;;;13.40;99.90;;;;;;5053130;28;20036;-52
2023/05/03 11:53:21;;;;;;;4.85;1.15;;;13.70;99.90;;;;;;5035638;28;20477;-49
2023/05/03 11:55:50;;;;;;;3.72;1.02;;;13.50;99.90;;;;;;5052665;28;20067;-52
2023/05/03 11:58:25;;;;;;;3.60;1.30;;;13.60;99.90;;;;;;5053752;28;20183;-52
2023/05/03 12:00:55;;;;;;;5.03;1.52;;;13.80;99.90;;;;;;5051822;28;20417;-52
2023/05/03 12:03:25;;;;;;;4.07;1.35;;;13.60;99.90;;;;;;5051932;28;20064;-52
2023/05/03 12:05:52;;;;;;;4.75;1.02;;;13.50;99.90;;;;;;5052835;28;20134;-53
2023/05/03 12:08:20;;;;;;;4.65;1.15;;;13.60;99.90;;;;;;5054968;28;20048;-53
2023/05/03 12:10:47;;;;;;;5.10;1.88;;;13.50;99.90;;;;;;5054151;28;20049;-52
2023/05/03 12:13:13;;;;;;;5.90;1.48;;;13.50;99.90;;;;;;5055705;28;20413;-53
2023/05/03 12:15:42;;;;;;;5.45;1.10;;;13.50;99.90;;;;;;5036368;28;20048;-54
2023/05/03 12:18:11;;;;;;;3.20;1.08;;;13.20;99.90;;;;;;5053624;28;20044;-52
2023/05/03 12:20:38;;;;;;;5.80;1.20;;;13.20;99.90;;;;;;5052741;28;20052;-50
2023/05/03 12:23:07;;;;;;;9.40;1.10;;;13.20;99.90;;;;;;5034844;28;20428;-52
2023/05/03 12:25:35;;;;;;;5.07;1.13;;;13.60;99.90;;;;;;5052166;28;20056;-52
2023/05/03 12:28:05;;;;;;;4.57;1.30;;;13.40;99.90;;;;;;5036874;28;20048;-53
2023/05/03 12:30:31;;;;;;;7.82;1.25;;;13.70;99.90;;;;;;5054252;28;20113;-49
2023/05/03 12:32:57;;;;;;;4.47;1.30;;;13.80;99.90;;;;;;5054451;28;20054;-51
2023/05/03 12:35:25;;;;;;;5.50;1.13;;;13.90;99.90;;;;;;5052885;28;20127;-54
2023/05/03 12:37:51;;;;;;;4.90;1.30;;;13.50;99.90;;;;;;5052771;28;20045;-54
2023/05/03 12:40:26;;;;;;;4.45;1.27;;;13.10;99.90;;;;;;5052503;28;20236;-54
2023/05/03 12:42:52;;;;;;;8.30;2.30;;;13.00;99.90;;;;;;5053749;28;20109;-52
2023/05/03 12:45:18;;;;;;;6.93;1.30;;;13.10;99.90;;;;;;5052983;28;20052;-52
2023/05/03 12:47:44;;;;;;;5.47;1.35;;;12.50;99.90;;;;;;5053332;28;20040;-51
2023/05/03 12:50:10;;;;;;;3.60;1.20;;;13.50;99.90;;;;;;5055767;28;20067;-54
2023/05/03 12:52:36;;;;;;;5.00;1.10;;;13.60;99.90;;;;;;5056274;28;20043;-54
2023/05/03 12:55:03;;;;;;;5.43;1.20;;;13.60;99.90;;;;;;5056123;28;21264;-51
2023/05/03 12:57:30;;;;;;;3.60;1.40;;;13.70;99.90;;;;;;5057704;28;20044;-51
2023/05/03 12:59:55;;;;;;;4.00;1.33;;;13.80;99.90;;;;;;5055292;28;20063;-53
2023/05/03 13:02:22;;;;;;;2.85;1.20;;;13.80;99.90;;;;;;5055752;28;20048;-48
2023/05/03 13:04:54;;;;;;;3.70;1.38;;;13.60;99.90;;;;;;5055799;28;20052;-50
2023/05/03 13:07:26;;;;;;;5.10;1.05;;;13.30;99.90;;;;;;5056019;28;20090;-52
2023/05/03 13:09:55;;;;;;;5.00;1.58;;;13.10;99.90;;;;;;5038528;28;20043;-51
2023/05/03 13:12:24;;;;;;;5.18;1.27;;;13.40;99.90;;;;;;5056334;28;20041;-53
2023/05/03 13:14:51;;;;;;;4.47;1.30;;;13.60;99.90;;;;;;5057727;28;20052;-52